EAG5511 SBSP-SBBR
Flight info
| Callsign | EAG5511 |
|---|---|
| Flight time | 1h 11m |
| Altitude | 40000 |
| Route | GERTU UZ25 PUGOR/N0476F430 UZ25 PABIN |
| Aircraft | C700/M-SBDGHM1RWXY/LB2 |
Departure
| Time | 2026-05-05 11:44 |
|---|---|
| Airport | Congonhas–Deputado Freitas Nobre Airport (SBSP) |
Arrival
| Time | 2026-05-05 12:55 |
|---|---|
| Airport | Presidente Juscelino Kubitschek International Airport (SBBR) |
| Time | Latitude | Longitude | Altitude | Speed | Heading |
|---|---|---|---|---|---|
| 2026-05-05 11:36 | -23.62882 | -46.65708 | 2622 ft | 0 kts | 327° |
| 2026-05-05 11:39 | -23.62877 | -46.65705 | 2622 ft | 1 kts | 47° |
| 2026-05-05 11:39 | -23.62878 | -46.65701 | 2622 ft | 0 kts | 85° |
| 2026-05-05 11:40 | -23.62876 | -46.65677 | 2622 ft | 9 kts | 85° |
| 2026-05-05 11:40 | -23.62894 | -46.65600 | 2623 ft | 12 kts | 135° |
| 2026-05-05 11:40 | -23.62963 | -46.65549 | 2625 ft | 12 kts | 148° |
| 2026-05-05 11:40 | -23.63044 | -46.65518 | 2627 ft | 13 kts | 169° |
| 2026-05-05 11:41 | -23.63126 | -46.65471 | 2629 ft | 15 kts | 148° |
| 2026-05-05 11:41 | -23.63215 | -46.65409 | 2631 ft | 15 kts | 147° |
| 2026-05-05 11:41 | -23.63306 | -46.65345 | 2634 ft | 16 kts | 147° |
| 2026-05-05 11:41 | -23.63364 | -46.65306 | 2635 ft | 5 kts | 148° |
| 2026-05-05 11:42 | -23.63382 | -46.65294 | 2636 ft | 2 kts | 148° |
| 2026-05-05 11:42 | -23.63430 | -46.65265 | 2637 ft | 11 kts | 156° |
| 2026-05-05 11:42 | -23.63479 | -46.65229 | 2639 ft | 0 kts | 143° |
| 2026-05-05 11:43 | -23.63479 | -46.65228 | 2639 ft | 0 kts | 143° |
| 2026-05-05 11:43 | -23.63505 | -46.65196 | 2641 ft | 12 kts | 115° |
| 2026-05-05 11:43 | -23.63449 | -46.65121 | 2642 ft | 16 kts | 21° |
| 2026-05-05 11:43 | -23.63271 | -46.65226 | 2637 ft | 65 kts | 328° |
| 2026-05-05 11:44 | -23.62601 | -46.65689 | 2622 ft | 160 kts | 328° |
| 2026-05-05 11:44 | -23.61536 | -46.66445 | 3458 ft | 197 kts | 328° |
| 2026-05-05 11:44 | -23.60404 | -46.67393 | 4767 ft | 214 kts | 309° |
| 2026-05-05 11:44 | -23.59762 | -46.68907 | 6075 ft | 231 kts | 292° |
| 2026-05-05 11:45 | -23.58874 | -46.70495 | 7150 ft | 260 kts | 305° |
| 2026-05-05 11:45 | -23.57742 | -46.72136 | 8332 ft | 277 kts | 305° |
| 2026-05-05 11:45 | -23.56650 | -46.73895 | 9832 ft | 284 kts | 301° |
| 2026-05-05 11:45 | -23.55616 | -46.75760 | 11013 ft | 302 kts | 300° |
| 2026-05-05 11:46 | -23.54465 | -46.77787 | 12014 ft | 323 kts | 301° |
| 2026-05-05 11:46 | -23.53240 | -46.79862 | 13509 ft | 329 kts | 302° |
| 2026-05-05 11:46 | -23.51993 | -46.81993 | 14789 ft | 338 kts | 301° |
| 2026-05-05 11:46 | -23.50729 | -46.84178 | 16028 ft | 344 kts | 300° |
| 2026-05-05 11:47 | -23.49435 | -46.86404 | 17251 ft | 351 kts | 300° |
| 2026-05-05 11:47 | -23.48112 | -46.88675 | 18440 ft | 358 kts | 300° |
| 2026-05-05 11:47 | -23.46763 | -46.90990 | 19471 ft | 365 kts | 300° |
| 2026-05-05 11:47 | -23.45409 | -46.93313 | 20491 ft | 371 kts | 299° |
| 2026-05-05 11:48 | -23.42597 | -46.98137 | 22502 ft | 384 kts | 299° |
| 2026-05-05 11:48 | -23.41154 | -47.00609 | 23474 ft | 390 kts | 299° |
| 2026-05-05 11:48 | -23.39687 | -47.03119 | 24341 ft | 395 kts | 299° |
| 2026-05-05 11:49 | -23.38207 | -47.05650 | 25265 ft | 397 kts | 298° |
| 2026-05-05 11:49 | -23.36720 | -47.08195 | 26225 ft | 400 kts | 298° |
| 2026-05-05 11:49 | -23.35222 | -47.10758 | 27129 ft | 403 kts | 298° |
| 2026-05-05 11:49 | -23.33711 | -47.13342 | 27957 ft | 407 kts | 298° |
| 2026-05-05 11:50 | -23.32182 | -47.15948 | 28822 ft | 410 kts | 298° |
| 2026-05-05 11:50 | -23.30449 | -47.18392 | 29680 ft | 418 kts | 308° |
| 2026-05-05 11:50 | -23.28305 | -47.20583 | 30444 ft | 429 kts | 316° |
| 2026-05-05 11:50 | -23.25797 | -47.22414 | 31102 ft | 440 kts | 326° |
| 2026-05-05 11:51 | -23.22982 | -47.23802 | 31736 ft | 451 kts | 335° |
| 2026-05-05 11:51 | -23.19919 | -47.24682 | 32371 ft | 460 kts | 344° |
| 2026-05-05 11:51 | -23.16762 | -47.25355 | 32953 ft | 464 kts | 344° |
| 2026-05-05 11:51 | -23.13579 | -47.26047 | 33585 ft | 468 kts | 344° |
| 2026-05-05 11:52 | -23.10396 | -47.26742 | 34419 ft | 465 kts | 344° |
| 2026-05-05 11:52 | -23.07267 | -47.27422 | 35088 ft | 464 kts | 343° |
| 2026-05-05 11:52 | -23.04099 | -47.28110 | 35723 ft | 464 kts | 343° |
| 2026-05-05 11:52 | -23.00940 | -47.28797 | 36341 ft | 463 kts | 343° |
| 2026-05-05 11:53 | -22.97777 | -47.29485 | 36919 ft | 463 kts | 342° |
| 2026-05-05 11:53 | -22.94625 | -47.30169 | 37469 ft | 462 kts | 342° |
| 2026-05-05 11:53 | -22.91473 | -47.30852 | 37984 ft | 462 kts | 342° |
| 2026-05-05 11:53 | -22.88323 | -47.31536 | 38480 ft | 461 kts | 341° |
| 2026-05-05 11:54 | -22.85177 | -47.32217 | 38926 ft | 461 kts | 341° |
| 2026-05-05 11:54 | -22.82069 | -47.32892 | 39220 ft | 462 kts | 341° |
| 2026-05-05 11:54 | -22.78920 | -47.33574 | 39560 ft | 462 kts | 341° |
| 2026-05-05 11:54 | -22.75770 | -47.34255 | 39890 ft | 461 kts | 341° |
| 2026-05-05 11:55 | -22.72624 | -47.34935 | 40196 ft | 461 kts | 341° |
| 2026-05-05 11:55 | -22.69520 | -47.35804 | 40215 ft | 460 kts | 332° |
| 2026-05-05 11:55 | -22.63844 | -47.38889 | 40209 ft | 456 kts | 317° |
| 2026-05-05 11:56 | -22.58800 | -47.43109 | 40226 ft | 466 kts | 314° |
| 2026-05-05 11:56 | -22.53610 | -47.47382 | 40235 ft | 475 kts | 314° |
| 2026-05-05 11:57 | -22.48390 | -47.51775 | 40233 ft | 476 kts | 314° |
| 2026-05-05 11:57 | -22.42562 | -47.55429 | 40220 ft | 495 kts | 329° |
| 2026-05-05 11:58 | -22.35818 | -47.57467 | 40220 ft | 513 kts | 344° |
| 2026-05-05 11:58 | -22.28763 | -47.58634 | 40227 ft | 513 kts | 343° |
| 2026-05-05 11:59 | -22.21757 | -47.59820 | 40220 ft | 514 kts | 344° |
| 2026-05-05 11:59 | -22.14720 | -47.60989 | 40230 ft | 509 kts | 343° |
| 2026-05-05 12:00 | -22.07739 | -47.62166 | 40241 ft | 508 kts | 343° |
| 2026-05-05 12:00 | -22.00759 | -47.63329 | 40237 ft | 508 kts | 343° |
| 2026-05-05 12:01 | -21.93823 | -47.64490 | 40232 ft | 507 kts | 343° |
| 2026-05-05 12:01 | -21.86839 | -47.65655 | 40223 ft | 508 kts | 343° |
| 2026-05-05 12:02 | -21.79855 | -47.66819 | 40213 ft | 507 kts | 343° |
| 2026-05-05 12:02 | -21.72875 | -47.67983 | 40212 ft | 508 kts | 343° |
| 2026-05-05 12:03 | -21.65941 | -47.69137 | 40209 ft | 508 kts | 343° |
| 2026-05-05 12:03 | -21.58953 | -47.70299 | 40210 ft | 508 kts | 343° |
| 2026-05-05 12:04 | -21.51963 | -47.71438 | 40212 ft | 508 kts | 343° |
| 2026-05-05 12:04 | -21.44962 | -47.72589 | 40211 ft | 510 kts | 343° |
| 2026-05-05 12:05 | -21.37987 | -47.73727 | 40211 ft | 511 kts | 343° |
| 2026-05-05 12:05 | -21.30961 | -47.74876 | 40209 ft | 510 kts | 343° |
| 2026-05-05 12:06 | -21.23953 | -47.76020 | 40211 ft | 510 kts | 343° |
| 2026-05-05 12:06 | -21.16932 | -47.77166 | 40210 ft | 511 kts | 343° |
| 2026-05-05 12:07 | -21.09930 | -47.78184 | 40238 ft | 512 kts | 345° |
| 2026-05-05 12:07 | -21.02867 | -47.79156 | 40206 ft | 512 kts | 345° |
| 2026-05-05 12:08 | -20.95791 | -47.80117 | 40205 ft | 512 kts | 345° |
| 2026-05-05 12:08 | -20.88719 | -47.81081 | 40202 ft | 513 kts | 345° |
| 2026-05-05 12:09 | -20.81635 | -47.82044 | 40195 ft | 513 kts | 345° |
| 2026-05-05 12:09 | -20.74581 | -47.83002 | 40207 ft | 515 kts | 345° |
| 2026-05-05 12:10 | -20.67487 | -47.83963 | 40205 ft | 513 kts | 345° |
| 2026-05-05 12:10 | -20.60399 | -47.84925 | 40203 ft | 513 kts | 345° |
| 2026-05-05 12:11 | -20.53317 | -47.85884 | 40206 ft | 514 kts | 345° |
| 2026-05-05 12:11 | -20.46214 | -47.86845 | 40205 ft | 515 kts | 345° |
| 2026-05-05 12:12 | -20.39154 | -47.87800 | 40205 ft | 515 kts | 345° |
| 2026-05-05 12:12 | -20.32056 | -47.88759 | 40201 ft | 514 kts | 345° |
| 2026-05-05 12:13 | -20.24966 | -47.89725 | 40201 ft | 513 kts | 345° |
| 2026-05-05 12:13 | -20.17881 | -47.90682 | 40201 ft | 513 kts | 345° |
| 2026-05-05 12:14 | -20.10841 | -47.91636 | 40191 ft | 513 kts | 345° |
| 2026-05-05 12:14 | -20.03765 | -47.92594 | 40218 ft | 512 kts | 345° |
| 2026-05-05 12:15 | -19.96693 | -47.93550 | 40235 ft | 512 kts | 345° |
| 2026-05-05 12:15 | -19.89622 | -47.94504 | 40255 ft | 513 kts | 345° |
| 2026-05-05 12:16 | -19.82594 | -47.95452 | 40258 ft | 512 kts | 345° |
| 2026-05-05 12:16 | -19.75531 | -47.96405 | 40260 ft | 512 kts | 345° |
| 2026-05-05 12:17 | -19.68462 | -47.97357 | 40209 ft | 512 kts | 345° |
| 2026-05-05 12:17 | -19.61386 | -47.98309 | 40213 ft | 512 kts | 345° |
| 2026-05-05 12:18 | -19.54330 | -47.99257 | 40215 ft | 510 kts | 345° |
| 2026-05-05 12:18 | -19.47333 | -48.00198 | 40213 ft | 511 kts | 345° |
| 2026-05-05 12:19 | -19.40281 | -48.01143 | 40216 ft | 510 kts | 345° |
| 2026-05-05 12:19 | -19.33239 | -48.02089 | 40216 ft | 510 kts | 345° |
| 2026-05-05 12:20 | -19.26200 | -48.03044 | 40216 ft | 510 kts | 345° |
| 2026-05-05 12:20 | -19.19162 | -48.04060 | 40217 ft | 511 kts | 345° |
| 2026-05-05 12:21 | -19.12145 | -48.05032 | 40219 ft | 511 kts | 345° |
| 2026-05-05 12:21 | -19.05111 | -48.06029 | 40215 ft | 510 kts | 345° |
| 2026-05-05 12:22 | -18.98079 | -48.07013 | 40278 ft | 510 kts | 345° |
| 2026-05-05 12:22 | -18.91034 | -48.08005 | 40295 ft | 511 kts | 345° |
| 2026-05-05 12:23 | -18.83984 | -48.08742 | 40296 ft | 512 kts | 347° |
| 2026-05-05 12:23 | -18.76901 | -48.09494 | 40286 ft | 512 kts | 347° |
| 2026-05-05 12:24 | -18.69817 | -48.10220 | 40264 ft | 511 kts | 347° |
| 2026-05-05 12:24 | -18.62745 | -48.10959 | 40242 ft | 510 kts | 347° |
| 2026-05-05 12:25 | -18.55744 | -48.11681 | 40212 ft | 510 kts | 347° |
| 2026-05-05 12:25 | -18.48681 | -48.12413 | 40210 ft | 510 kts | 347° |
| 2026-05-05 12:26 | -18.41619 | -48.13144 | 40208 ft | 510 kts | 347° |
| 2026-05-05 12:26 | -18.34558 | -48.13876 | 40206 ft | 509 kts | 347° |
| 2026-05-05 12:27 | -18.27552 | -48.14600 | 40201 ft | 509 kts | 347° |
| 2026-05-05 12:27 | -18.20499 | -48.15331 | 40198 ft | 509 kts | 347° |
| 2026-05-05 12:28 | -18.13445 | -48.16057 | 40200 ft | 509 kts | 347° |
| 2026-05-05 12:28 | -18.06388 | -48.16785 | 40202 ft | 510 kts | 347° |
| 2026-05-05 12:29 | -17.99330 | -48.17510 | 40207 ft | 509 kts | 347° |
| 2026-05-05 12:29 | -17.92322 | -48.18233 | 40206 ft | 509 kts | 347° |
| 2026-05-05 12:30 | -17.85272 | -48.18955 | 40204 ft | 508 kts | 347° |
| 2026-05-05 12:30 | -17.81740 | -48.19318 | 39836 ft | 514 kts | 348° |
| 2026-05-05 12:30 | -17.78141 | -48.19401 | 39164 ft | 522 kts | 356° |
| 2026-05-05 12:31 | -17.74526 | -48.19042 | 38434 ft | 520 kts | 0° |
| 2026-05-05 12:31 | -17.70946 | -48.18633 | 37749 ft | 514 kts | 0° |
| 2026-05-05 12:31 | -17.67402 | -48.18248 | 37078 ft | 512 kts | 0° |
| 2026-05-05 12:31 | -17.63897 | -48.17875 | 36410 ft | 515 kts | 0° |
| 2026-05-05 12:32 | -17.60309 | -48.17481 | 35733 ft | 521 kts | 1° |
| 2026-05-05 12:32 | -17.56685 | -48.17074 | 35045 ft | 526 kts | 1° |
| 2026-05-05 12:32 | -17.53038 | -48.16672 | 34352 ft | 528 kts | 1° |
| 2026-05-05 12:32 | -17.49375 | -48.16274 | 33610 ft | 529 kts | 2° |
| 2026-05-05 12:33 | -17.45737 | -48.15874 | 32916 ft | 524 kts | 2° |
| 2026-05-05 12:33 | -17.42130 | -48.15475 | 32228 ft | 519 kts | 2° |
| 2026-05-05 12:33 | -17.38519 | -48.15081 | 31536 ft | 524 kts | 3° |
| 2026-05-05 12:33 | -17.34955 | -48.14692 | 30853 ft | 518 kts | 3° |
| 2026-05-05 12:34 | -17.31394 | -48.14298 | 30151 ft | 511 kts | 3° |
| 2026-05-05 12:34 | -17.27876 | -48.13912 | 29455 ft | 509 kts | 3° |
| 2026-05-05 12:34 | -17.24334 | -48.13529 | 28778 ft | 513 kts | 4° |
| 2026-05-05 12:34 | -17.20798 | -48.13140 | 28099 ft | 509 kts | 4° |
| 2026-05-05 12:35 | -17.17296 | -48.12754 | 27433 ft | 504 kts | 4° |
| 2026-05-05 12:35 | -17.13828 | -48.12375 | 26773 ft | 498 kts | 4° |
| 2026-05-05 12:35 | -17.10398 | -48.12002 | 26113 ft | 493 kts | 4° |
| 2026-05-05 12:35 | -17.07002 | -48.11631 | 25470 ft | 488 kts | 4° |
| 2026-05-05 12:36 | -17.03684 | -48.11267 | 24833 ft | 483 kts | 4° |
| 2026-05-05 12:36 | -17.00355 | -48.10904 | 24202 ft | 478 kts | 4° |
| 2026-05-05 12:36 | -16.97066 | -48.10546 | 23529 ft | 473 kts | 5° |
| 2026-05-05 12:36 | -16.93816 | -48.10190 | 22906 ft | 467 kts | 5° |
| 2026-05-05 12:37 | -16.90598 | -48.09838 | 22288 ft | 463 kts | 5° |
| 2026-05-05 12:37 | -16.87408 | -48.09490 | 21673 ft | 459 kts | 5° |
| 2026-05-05 12:37 | -16.84244 | -48.09147 | 21079 ft | 455 kts | 5° |
| 2026-05-05 12:37 | -16.81111 | -48.08805 | 20378 ft | 452 kts | 5° |
| 2026-05-05 12:38 | -16.78019 | -48.08635 | 19588 ft | 446 kts | 357° |
| 2026-05-05 12:38 | -16.74976 | -48.08998 | 19000 ft | 436 kts | 348° |
| 2026-05-05 12:38 | -16.72021 | -48.09679 | 18414 ft | 434 kts | 346° |
| 2026-05-05 12:38 | -16.69079 | -48.10341 | 17814 ft | 431 kts | 347° |
| 2026-05-05 12:39 | -16.66161 | -48.10988 | 17249 ft | 428 kts | 347° |
| 2026-05-05 12:39 | -16.63260 | -48.11649 | 16676 ft | 426 kts | 346° |
| 2026-05-05 12:39 | -16.60373 | -48.12311 | 16126 ft | 424 kts | 347° |
| 2026-05-05 12:39 | -16.57506 | -48.12957 | 15570 ft | 420 kts | 348° |
| 2026-05-05 12:40 | -16.54669 | -48.13594 | 15022 ft | 415 kts | 348° |
| 2026-05-05 12:40 | -16.51882 | -48.14224 | 14468 ft | 414 kts | 348° |
| 2026-05-05 12:40 | -16.49069 | -48.14863 | 13925 ft | 413 kts | 349° |
| 2026-05-05 12:40 | -16.46294 | -48.15490 | 13349 ft | 404 kts | 349° |
| 2026-05-05 12:41 | -16.43559 | -48.16104 | 12824 ft | 401 kts | 349° |
| 2026-05-05 12:41 | -16.40901 | -48.16709 | 12306 ft | 380 kts | 349° |
| 2026-05-05 12:41 | -16.38388 | -48.17279 | 11819 ft | 360 kts | 349° |
| 2026-05-05 12:41 | -16.35998 | -48.17814 | 11356 ft | 343 kts | 350° |
| 2026-05-05 12:42 | -16.33713 | -48.18329 | 10912 ft | 330 kts | 349° |
| 2026-05-05 12:42 | -16.31539 | -48.18819 | 10490 ft | 320 kts | 350° |
| 2026-05-05 12:42 | -16.29395 | -48.19302 | 10071 ft | 310 kts | 350° |
| 2026-05-05 12:42 | -16.27333 | -48.19770 | 9886 ft | 295 kts | 350° |
| 2026-05-05 12:43 | -16.25349 | -48.20214 | 9758 ft | 291 kts | 351° |
| 2026-05-05 12:43 | -16.23364 | -48.20656 | 9601 ft | 292 kts | 350° |
| 2026-05-05 12:43 | -16.21379 | -48.21101 | 9425 ft | 292 kts | 350° |
| 2026-05-05 12:43 | -16.19385 | -48.21547 | 9245 ft | 293 kts | 351° |
| 2026-05-05 12:44 | -16.17423 | -48.21987 | 9061 ft | 292 kts | 351° |
| 2026-05-05 12:44 | -16.15445 | -48.22253 | 8864 ft | 279 kts | 4° |
| 2026-05-05 12:44 | -16.13575 | -48.22020 | 8682 ft | 264 kts | 16° |
| 2026-05-05 12:44 | -16.11838 | -48.21555 | 8506 ft | 252 kts | 17° |
| 2026-05-05 12:45 | -16.10161 | -48.21134 | 8343 ft | 244 kts | 17° |
| 2026-05-05 12:45 | -16.08546 | -48.20728 | 8191 ft | 234 kts | 18° |
| 2026-05-05 12:45 | -16.06989 | -48.20328 | 8027 ft | 226 kts | 17° |
| 2026-05-05 12:45 | -16.05481 | -48.19939 | 7884 ft | 220 kts | 17° |
| 2026-05-05 12:46 | -16.04021 | -48.19565 | 7757 ft | 213 kts | 18° |
| 2026-05-05 12:46 | -16.02608 | -48.19200 | 7623 ft | 211 kts | 17° |
| 2026-05-05 12:46 | -16.01187 | -48.18836 | 7482 ft | 208 kts | 17° |
| 2026-05-05 12:46 | -15.99798 | -48.18486 | 7355 ft | 203 kts | 16° |
| 2026-05-05 12:47 | -15.98385 | -48.18447 | 7227 ft | 207 kts | 355° |
| 2026-05-05 12:47 | -15.96967 | -48.18781 | 7096 ft | 209 kts | 352° |
| 2026-05-05 12:47 | -15.95553 | -48.19089 | 6962 ft | 206 kts | 353° |
| 2026-05-05 12:47 | -15.94138 | -48.19391 | 6832 ft | 209 kts | 352° |
| 2026-05-05 12:48 | -15.92727 | -48.19707 | 6693 ft | 207 kts | 352° |
| 2026-05-05 12:48 | -15.91335 | -48.20006 | 6559 ft | 201 kts | 359° |
| 2026-05-05 12:48 | -15.89992 | -48.19874 | 6419 ft | 194 kts | 21° |
| 2026-05-05 12:48 | -15.88771 | -48.19334 | 6292 ft | 190 kts | 37° |
| 2026-05-05 12:49 | -15.87786 | -48.18440 | 6168 ft | 186 kts | 53° |
| 2026-05-05 12:49 | -15.87124 | -48.17315 | 6041 ft | 178 kts | 70° |
| 2026-05-05 12:49 | -15.86824 | -48.16088 | 5928 ft | 176 kts | 84° |
| 2026-05-05 12:49 | -15.86869 | -48.14822 | 5833 ft | 179 kts | 99° |
| 2026-05-05 12:50 | -15.87286 | -48.13583 | 5710 ft | 185 kts | 115° |
| 2026-05-05 12:50 | -15.88041 | -48.12494 | 5598 ft | 187 kts | 128° |
| 2026-05-05 12:50 | -15.88724 | -48.11382 | 5472 ft | 180 kts | 108° |
| 2026-05-05 12:50 | -15.89030 | -48.10179 | 5464 ft | 168 kts | 96° |
| 2026-05-05 12:51 | -15.88995 | -48.09028 | 5475 ft | 150 kts | 87° |
| 2026-05-05 12:51 | -15.88955 | -48.08025 | 5463 ft | 133 kts | 89° |
| 2026-05-05 12:51 | -15.88907 | -48.07082 | 5470 ft | 131 kts | 84° |
| 2026-05-05 12:51 | -15.88837 | -48.06142 | 5477 ft | 131 kts | 87° |
| 2026-05-05 12:52 | -15.88788 | -48.05198 | 5503 ft | 129 kts | 84° |
| 2026-05-05 12:52 | -15.88717 | -48.04266 | 5464 ft | 130 kts | 86° |
| 2026-05-05 12:52 | -15.88663 | -48.03343 | 5309 ft | 124 kts | 87° |
| 2026-05-05 12:52 | -15.88614 | -48.02492 | 5160 ft | 117 kts | 88° |
| 2026-05-05 12:53 | -15.88553 | -48.01652 | 5010 ft | 116 kts | 86° |
| 2026-05-05 12:53 | -15.88505 | -48.00816 | 4860 ft | 116 kts | 88° |
| 2026-05-05 12:53 | -15.88448 | -47.99996 | 4699 ft | 114 kts | 85° |
| 2026-05-05 12:53 | -15.88396 | -47.99136 | 4555 ft | 125 kts | 87° |
| 2026-05-05 12:54 | -15.88284 | -47.97419 | 4204 ft | 118 kts | 88° |
| 2026-05-05 12:54 | -15.88232 | -47.96518 | 4055 ft | 119 kts | 89° |
| 2026-05-05 12:54 | -15.88179 | -47.95631 | 3907 ft | 127 kts | 89° |
| 2026-05-05 12:55 | -15.88112 | -47.94716 | 3669 ft | 125 kts | 87° |
| 2026-05-05 12:55 | -15.88049 | -47.93901 | 3492 ft | 100 kts | 91° |
| 2026-05-05 12:55 | -15.88022 | -47.93282 | 3471 ft | 68 kts | 85° |
| 2026-05-05 12:55 | -15.87995 | -47.92884 | 3470 ft | 45 kts | 87° |
| 2026-05-05 12:56 | -15.87977 | -47.92604 | 3471 ft | 34 kts | 85° |
| 2026-05-05 12:56 | -15.87962 | -47.92376 | 3470 ft | 31 kts | 86° |
| 2026-05-05 12:56 | -15.87949 | -47.92148 | 3470 ft | 33 kts | 86° |
| 2026-05-05 12:56 | -15.87921 | -47.91907 | 3468 ft | 34 kts | 71° |
| 2026-05-05 12:57 | -15.87821 | -47.91717 | 3465 ft | 25 kts | 56° |
| 2026-05-05 12:57 | -15.87720 | -47.91566 | 3464 ft | 26 kts | 43° |
| 2026-05-05 12:57 | -15.87567 | -47.91559 | 3465 ft | 23 kts | 356° |
| 2026-05-05 12:57 | -15.87400 | -47.91571 | 3464 ft | 25 kts | 355° |
| 2026-05-05 12:58 | -15.87244 | -47.91593 | 3464 ft | 11 kts | 306° |
| 2026-05-05 12:58 | -15.87212 | -47.91669 | 3464 ft | 13 kts | 325° |
| 2026-05-05 12:58 | -15.87189 | -47.91721 | 3464 ft | 8 kts | 266° |
| 2026-05-05 12:58 | -15.87190 | -47.91742 | 3464 ft | 0 kts | 267° |